createdAt,value
2023-05-20T00:02:03.637Z,18.38
2023-05-20T00:04:30.575Z,18.42
2023-05-20T00:06:57.493Z,18.45
2023-05-20T00:09:24.211Z,18.53
2023-05-20T00:11:50.999Z,18.42
2023-05-20T00:14:17.647Z,18.13
2023-05-20T00:16:44.407Z,18.16
2023-05-20T00:19:11.285Z,18.25
2023-05-20T00:21:38.081Z,18.15
2023-05-20T00:24:04.910Z,18.17
2023-05-20T00:26:31.911Z,18.25
2023-05-20T00:28:58.799Z,18.16
2023-05-20T00:31:25.685Z,18.30
2023-05-20T00:33:52.396Z,18.19
2023-05-20T00:36:19.296Z,18.17
2023-05-20T00:38:46.060Z,18.29
2023-05-20T00:41:12.711Z,18.37
2023-05-20T00:43:39.410Z,18.38
2023-05-20T00:46:06.151Z,18.30
2023-05-20T00:48:44.835Z,18.19
2023-05-20T00:51:13.048Z,17.95
2023-05-20T00:53:41.445Z,18.00
2023-05-20T00:56:08.935Z,17.80
2023-05-20T00:58:37.940Z,17.82
2023-05-20T01:01:05.527Z,17.93
2023-05-20T01:03:33.383Z,17.94
2023-05-20T01:06:01.090Z,18.02
2023-05-20T01:08:28.693Z,17.91
2023-05-20T01:11:09.226Z,17.98
2023-05-20T01:13:53.202Z,17.98
2023-05-20T01:16:23.301Z,18.02
2023-05-20T01:18:55.170Z,17.96
2023-05-20T01:21:22.170Z,17.93
2023-05-20T01:23:49.281Z,17.97
2023-05-20T01:26:17.120Z,17.94
2023-05-20T01:28:45.668Z,17.99
2023-05-20T01:31:21.431Z,17.95
2023-05-20T01:33:52.250Z,17.87
2023-05-20T01:36:21.486Z,17.82
2023-05-20T01:38:50.595Z,17.87
2023-05-20T01:41:18.350Z,17.89
2023-05-20T01:43:45.457Z,17.85
2023-05-20T01:46:12.503Z,17.81
2023-05-20T01:48:39.256Z,17.86
2023-05-20T01:51:06.070Z,17.94
2023-05-20T01:53:32.920Z,17.77
2023-05-20T01:55:59.688Z,17.77
2023-05-20T01:58:26.789Z,17.85
2023-05-20T02:00:53.513Z,17.82
2023-05-20T02:03:20.265Z,17.81
2023-05-20T02:05:47.035Z,17.84
2023-05-20T02:08:13.733Z,17.96
2023-05-20T02:10:40.440Z,17.99
2023-05-20T02:13:07.155Z,18.02
2023-05-20T02:15:34.684Z,17.96
2023-05-20T02:18:02.444Z,17.80
2023-05-20T02:20:29.261Z,17.86
2023-05-20T02:22:56.054Z,17.82
2023-05-20T02:25:22.803Z,17.70
2023-05-20T02:27:49.487Z,17.72
2023-05-20T02:30:17.285Z,17.72
2023-05-20T02:32:44.074Z,17.79
2023-05-20T02:35:11.835Z,17.75
2023-05-20T02:37:39.418Z,17.72
2023-05-20T02:40:07.007Z,17.67
2023-05-20T02:42:33.747Z,17.55
2023-05-20T02:45:00.933Z,17.61
2023-05-20T02:47:27.795Z,17.50
2023-05-20T02:49:54.539Z,17.53
2023-05-20T02:52:21.985Z,17.52
2023-05-20T02:54:48.689Z,17.59
2023-05-20T02:57:16.253Z,17.52
2023-05-20T02:59:42.997Z,17.56
2023-05-20T03:02:09.816Z,17.52
2023-05-20T03:04:38.762Z,17.40
2023-05-20T03:07:09.201Z,17.36
2023-05-20T03:09:36.024Z,17.42
2023-05-20T03:12:02.791Z,17.31
2023-05-20T03:14:30.303Z,17.31
2023-05-20T03:16:57.674Z,17.19
2023-05-20T03:19:24.484Z,17.15
2023-05-20T03:21:51.299Z,17.14
2023-05-20T03:24:18.225Z,17.08
2023-05-20T03:26:47.049Z,17.01
2023-05-20T03:29:13.965Z,16.94
2023-05-20T03:31:40.910Z,16.93
2023-05-20T03:34:08.251Z,16.60
2023-05-20T03:36:35.320Z,16.72
2023-05-20T03:39:04.153Z,16.73
2023-05-20T03:41:32.410Z,16.72
2023-05-20T03:43:59.119Z,16.69
2023-05-20T03:46:26.878Z,16.61
2023-05-20T03:48:53.618Z,16.71
2023-05-20T03:51:20.311Z,16.72
2023-05-20T03:53:50.333Z,16.68
2023-05-20T03:56:17.085Z,16.52
2023-05-20T03:58:44.244Z,16.48
2023-05-20T04:01:13.181Z,16.43
2023-05-20T04:03:42.195Z,16.48
2023-05-20T04:06:09.071Z,16.38
2023-05-20T04:08:36.709Z,16.52
2023-05-20T04:11:03.936Z,16.52
2023-05-20T04:13:30.791Z,16.43
2023-05-20T04:15:57.718Z,16.33
2023-05-20T04:18:24.816Z,16.45
2023-05-20T04:20:56.428Z,16.48
2023-05-20T04:23:23.970Z,16.49
2023-05-20T04:25:50.809Z,16.41
2023-05-20T04:28:17.508Z,16.45
2023-05-20T04:30:45.170Z,16.54
2023-05-20T04:33:12.794Z,16.64
2023-05-20T04:35:41.686Z,16.62
2023-05-20T04:38:09.550Z,16.64
2023-05-20T04:40:36.270Z,16.66
2023-05-20T04:43:04.185Z,16.60
2023-05-20T04:45:31.412Z,16.59
2023-05-20T04:47:58.549Z,16.62
2023-05-20T04:50:25.333Z,16.69
2023-05-20T04:52:52.173Z,16.87
2023-05-20T04:55:19.802Z,16.95
2023-05-20T04:57:46.703Z,17.01
2023-05-20T05:00:13.821Z,17.00
2023-05-20T05:02:41.482Z,17.12
2023-05-20T05:05:08.655Z,17.25
2023-05-20T05:07:35.768Z,17.31
2023-05-20T05:10:02.577Z,17.32
2023-05-20T05:12:33.486Z,17.38
2023-05-20T05:15:00.424Z,17.30
2023-05-20T05:17:28.985Z,17.31
2023-05-20T05:19:57.243Z,17.33
2023-05-20T05:22:24.411Z,17.46
2023-05-20T05:24:52.278Z,17.42
2023-05-20T05:27:19.062Z,17.45
2023-05-20T05:29:45.843Z,17.39
2023-05-20T05:32:12.554Z,17.31
2023-05-20T05:34:39.249Z,17.61
2023-05-20T05:37:06.306Z,17.38
2023-05-20T05:39:34.517Z,17.51
2023-05-20T05:42:01.326Z,17.30
2023-05-20T05:44:28.245Z,17.38
2023-05-20T05:46:55.149Z,17.43
2023-05-20T05:49:22.236Z,17.45
2023-05-20T05:51:50.914Z,17.57
2023-05-20T05:54:19.167Z,17.85
2023-05-20T05:56:45.938Z,17.93
2023-05-20T05:59:13.041Z,18.17
2023-05-20T06:01:40.500Z,18.39
2023-05-20T06:04:07.396Z,18.64
2023-05-20T06:06:35.097Z,18.94
2023-05-20T06:09:01.833Z,19.17
2023-05-20T06:11:29.115Z,19.43
2023-05-20T06:13:55.988Z,19.50
2023-05-20T06:16:22.778Z,19.55
2023-05-20T06:18:51.310Z,19.70
2023-05-20T06:21:18.683Z,19.62
2023-05-20T06:23:45.386Z,19.64
2023-05-20T06:26:13.331Z,19.72
2023-05-20T06:28:40.133Z,20.12
2023-05-20T06:31:07.971Z,20.18
2023-05-20T06:33:36.632Z,20.26
2023-05-20T06:36:08.053Z,20.13
2023-05-20T06:38:34.830Z,20.50
2023-05-20T06:41:02.193Z,20.35
2023-05-20T06:43:29.892Z,20.37
2023-05-20T06:46:10.384Z,20.89
2023-05-20T06:48:59.969Z,21.33
2023-05-20T06:51:28.132Z,21.45
2023-05-20T06:53:55.881Z,21.24
2023-05-20T06:56:22.690Z,21.28
2023-05-20T06:58:49.404Z,21.54
2023-05-20T07:01:18.140Z,21.68
2023-05-20T07:03:46.118Z,21.60
2023-05-20T07:06:12.918Z,21.82
2023-05-20T07:08:39.755Z,21.97
2023-05-20T07:11:06.893Z,22.14
2023-05-20T07:13:33.621Z,22.08
2023-05-20T07:16:00.331Z,21.88
2023-05-20T07:18:28.470Z,21.81
2023-05-20T07:20:59.510Z,21.59
2023-05-20T07:23:35.982Z,21.54
2023-05-20T07:26:02.816Z,21.42
2023-05-20T07:28:29.553Z,21.40
2023-05-20T07:30:58.027Z,21.52
2023-05-20T07:33:29.860Z,21.43
2023-05-20T07:35:56.921Z,21.63
2023-05-20T07:38:23.595Z,21.51
2023-05-20T07:40:56.801Z,21.53
2023-05-20T07:43:24.286Z,21.78
2023-05-20T07:45:51.139Z,21.75
2023-05-20T07:48:17.835Z,21.81
2023-05-20T07:50:44.781Z,21.41
2023-05-20T07:53:12.052Z,21.30
2023-05-20T07:55:39.314Z,21.20
2023-05-20T07:58:06.915Z,21.36
2023-05-20T08:00:35.818Z,21.56
2023-05-20T08:03:08.021Z,21.49
2023-05-20T08:05:54.522Z,21.89
2023-05-20T08:08:21.439Z,22.20
2023-05-20T08:10:53.864Z,22.72
2023-05-20T08:13:23.840Z,22.96
2023-05-20T08:15:53.517Z,23.15
2023-05-20T08:18:20.325Z,23.55
2023-05-20T08:20:47.649Z,23.92
2023-05-20T08:23:14.428Z,24.99
2023-05-20T08:25:41.906Z,25.93
2023-05-20T08:28:09.482Z,26.43
2023-05-20T08:30:38.007Z,26.13
2023-05-20T08:33:04.861Z,26.37
2023-05-20T08:35:32.068Z,25.67
2023-05-20T08:37:58.896Z,25.16
2023-05-20T08:40:27.306Z,24.23
2023-05-20T08:42:54.087Z,24.05
2023-05-20T08:45:27.708Z,24.82
2023-05-20T08:48:00.273Z,24.54
2023-05-20T08:50:27.377Z,24.25
2023-05-20T08:52:54.361Z,23.47
2023-05-20T08:55:43.351Z,23.08
2023-05-20T08:58:10.564Z,22.50
2023-05-20T09:00:37.444Z,22.95
2023-05-20T09:03:05.368Z,23.53
2023-05-20T09:05:32.832Z,24.30
2023-05-20T09:08:10.548Z,25.66
2023-05-20T09:10:39.067Z,26.84
2023-05-20T09:13:07.456Z,27.64
2023-05-20T09:15:35.808Z,27.34
2023-05-20T09:18:04.542Z,27.67
2023-05-20T09:20:34.035Z,28.01
2023-05-20T09:23:02.308Z,29.14
2023-05-20T09:25:32.481Z,29.02
2023-05-20T09:27:59.404Z,30.05
2023-05-20T09:30:26.689Z,30.85
2023-05-20T09:32:58.209Z,31.73
2023-05-20T09:35:26.888Z,31.96
2023-05-20T09:37:57.958Z,30.99
2023-05-20T09:40:29.251Z,31.07
2023-05-20T09:43:08.241Z,31.80
2023-05-20T09:45:35.298Z,32.45
2023-05-20T09:48:03.235Z,33.31
2023-05-20T09:50:31.615Z,32.98
2023-05-20T09:53:03.776Z,32.98
2023-05-20T09:55:30.894Z,32.63
2023-05-20T09:57:59.110Z,33.40
2023-05-20T10:00:26.016Z,32.38
2023-05-20T10:02:53.500Z,33.22
2023-05-20T10:05:24.080Z,32.64
2023-05-20T10:08:32.888Z,32.39
2023-05-20T10:11:12.648Z,32.50
2023-05-20T10:14:19.093Z,31.90
2023-05-20T10:17:02.641Z,31.91
2023-05-20T10:19:34.473Z,32.46
2023-05-20T10:22:02.123Z,32.41
2023-05-20T10:24:36.366Z,31.22
2023-05-20T10:27:07.497Z,31.66
2023-05-20T10:29:54.971Z,32.67
2023-05-20T10:32:29.548Z,32.56
2023-05-20T10:35:05.083Z,32.15
2023-05-20T10:37:34.448Z,31.97
2023-05-20T10:40:09.088Z,30.81
2023-05-20T10:42:35.764Z,28.84
2023-05-20T10:45:03.833Z,29.79
2023-05-20T10:47:31.587Z,31.30
2023-05-20T10:49:58.679Z,32.15
2023-05-20T10:52:25.809Z,30.74
2023-05-20T10:55:00.364Z,29.61
2023-05-20T10:57:28.577Z,28.72
2023-05-20T10:59:56.545Z,27.59
2023-05-20T11:02:27.100Z,28.64
2023-05-20T11:04:56.575Z,29.40
2023-05-20T11:07:27.647Z,29.26
2023-05-20T11:09:58.212Z,29.39
2023-05-20T11:12:26.460Z,30.34
2023-05-20T11:14:53.862Z,31.43
2023-05-20T11:17:20.886Z,31.68
2023-05-20T11:19:48.493Z,32.37
2023-05-20T11:22:15.558Z,31.92
2023-05-20T11:24:42.396Z,32.52
2023-05-20T11:27:09.494Z,32.92
2023-05-20T11:29:36.425Z,32.06
2023-05-20T11:32:03.306Z,30.87
2023-05-20T11:34:36.308Z,29.72
2023-05-20T11:37:07.618Z,29.04
2023-05-20T11:39:34.616Z,28.51
2023-05-20T11:42:01.360Z,27.79
2023-05-20T11:44:28.171Z,26.85
2023-05-20T11:47:00.533Z,26.59
2023-05-20T11:49:27.774Z,26.96
2023-05-20T11:51:54.451Z,27.27
2023-05-20T11:54:22.928Z,27.27
2023-05-20T11:56:50.025Z,26.70
2023-05-20T11:59:16.747Z,26.38
2023-05-20T12:01:43.708Z,26.28
2023-05-20T12:04:11.094Z,25.75
2023-05-20T12:06:38.092Z,25.68
2023-05-20T12:09:07.322Z,26.25
2023-05-20T12:11:35.784Z,26.65
2023-05-20T12:14:06.171Z,26.72
2023-05-20T12:16:33.952Z,26.60
2023-05-20T12:19:01.162Z,26.62
2023-05-20T12:21:31.620Z,26.15
2023-05-20T12:24:01.616Z,26.37
2023-05-20T12:26:29.348Z,26.39
2023-05-20T12:28:56.729Z,26.52
2023-05-20T12:31:23.898Z,26.75
2023-05-20T12:33:50.719Z,26.56
2023-05-20T12:36:17.511Z,26.86
2023-05-20T12:38:44.436Z,26.70
2023-05-20T12:41:11.223Z,26.97
2023-05-20T12:43:38.055Z,26.49
2023-05-20T12:46:05.774Z,26.42
2023-05-20T12:48:32.566Z,26.38
2023-05-20T12:51:00.168Z,26.39
2023-05-20T12:53:26.875Z,26.14
2023-05-20T12:55:53.701Z,26.30
2023-05-20T12:58:20.665Z,26.38
2023-05-20T13:00:47.402Z,26.44
2023-05-20T13:03:14.448Z,26.71
2023-05-20T13:05:41.294Z,26.78
2023-05-20T13:08:10.034Z,26.72
2023-05-20T13:10:37.164Z,26.47
2023-05-20T13:13:04.382Z,26.09
2023-05-20T13:15:33.057Z,26.07
2023-05-20T13:18:01.373Z,26.00
2023-05-20T13:20:29.056Z,26.17
2023-05-20T13:22:55.705Z,26.50
2023-05-20T13:25:22.415Z,26.63
2023-05-20T13:27:49.107Z,26.56
2023-05-20T13:30:16.115Z,26.30
2023-05-20T13:32:42.878Z,25.60
2023-05-20T13:35:09.819Z,25.33
2023-05-20T13:37:36.511Z,25.31
2023-05-20T13:40:03.395Z,25.92
2023-05-20T13:42:30.151Z,26.50
2023-05-20T13:44:57.022Z,26.62
2023-05-20T13:47:23.813Z,26.75
2023-05-20T13:49:50.551Z,26.63
2023-05-20T13:52:17.409Z,26.24
2023-05-20T13:54:46.639Z,25.80
2023-05-20T13:57:13.687Z,25.80
2023-05-20T13:59:40.615Z,25.70
2023-05-20T14:02:08.233Z,25.47
2023-05-20T14:04:39.760Z,25.38
2023-05-20T14:07:09.270Z,25.22
2023-05-20T14:09:36.761Z,25.39
2023-05-20T14:12:04.344Z,25.16
2023-05-20T14:14:31.355Z,25.57
2023-05-20T14:16:58.366Z,25.40
2023-05-20T14:19:27.107Z,25.27
2023-05-20T14:21:54.205Z,25.39
2023-05-20T14:24:22.998Z,25.35
2023-05-20T14:26:50.703Z,25.75
2023-05-20T14:29:17.618Z,25.71
2023-05-20T14:31:44.731Z,25.77
2023-05-20T14:34:11.501Z,25.69
2023-05-20T14:36:38.765Z,25.68
2023-05-20T14:39:05.657Z,25.69
2023-05-20T14:41:32.435Z,25.75
2023-05-20T14:43:59.404Z,26.12
2023-05-20T14:46:26.458Z,26.09
2023-05-20T14:48:53.178Z,25.59
2023-05-20T14:51:20.271Z,25.40
2023-05-20T14:53:46.926Z,25.42
2023-05-20T14:56:13.624Z,25.29
2023-05-20T14:58:40.667Z,25.34
2023-05-20T15:01:07.506Z,24.97
2023-05-20T15:03:34.430Z,25.06
2023-05-20T15:06:01.644Z,25.11
2023-05-20T15:08:28.317Z,25.14
2023-05-20T15:10:55.166Z,25.33
2023-05-20T15:13:21.940Z,25.32
2023-05-20T15:15:48.714Z,25.01
2023-05-20T15:18:15.518Z,25.25
2023-05-20T15:20:42.579Z,25.14
2023-05-20T15:23:09.551Z,25.42
2023-05-20T15:25:36.519Z,25.44
2023-05-20T15:28:03.450Z,25.57
2023-05-20T15:30:30.153Z,25.52
2023-05-20T15:32:57.172Z,25.61
2023-05-20T15:35:24.049Z,25.55
2023-05-20T15:37:50.969Z,25.28
2023-05-20T15:40:17.950Z,25.01
2023-05-20T15:42:44.905Z,24.90
2023-05-20T15:45:11.960Z,24.97
2023-05-20T15:47:40.699Z,24.83
2023-05-20T15:50:08.629Z,25.04
2023-05-20T15:52:35.652Z,24.91
2023-05-20T15:55:02.745Z,24.91
2023-05-20T15:57:30.647Z,24.92
2023-05-20T15:59:57.560Z,25.01
2023-05-20T16:02:24.939Z,25.18
2023-05-20T16:04:52.336Z,25.29
2023-05-20T16:07:19.175Z,25.14
2023-05-20T16:09:46.052Z,25.05
2023-05-20T16:12:12.852Z,24.90
2023-05-20T16:14:39.554Z,24.62
2023-05-20T16:17:06.292Z,24.57
2023-05-20T16:19:33.192Z,24.53
2023-05-20T16:22:00.195Z,24.44
2023-05-20T16:24:26.994Z,24.50
2023-05-20T16:26:59.434Z,24.47
2023-05-20T16:29:26.202Z,24.49
2023-05-20T16:31:53.184Z,24.29
2023-05-20T16:34:20.075Z,24.10
2023-05-20T16:36:46.913Z,24.16
2023-05-20T16:39:14.677Z,24.07
2023-05-20T16:41:42.262Z,24.00
2023-05-20T16:44:09.332Z,23.83
2023-05-20T16:46:36.302Z,23.76
2023-05-20T16:49:03.104Z,24.07
2023-05-20T16:51:29.807Z,24.22
2023-05-20T16:53:56.588Z,24.36
2023-05-20T16:56:23.624Z,24.38
2023-05-20T16:58:52.825Z,24.40
2023-05-20T17:01:21.478Z,24.38
2023-05-20T17:03:48.859Z,24.30
2023-05-20T17:06:15.725Z,24.33
2023-05-20T17:08:45.130Z,24.37
2023-05-20T17:11:12.015Z,24.28
2023-05-20T17:13:41.408Z,24.31
2023-05-20T17:16:09.884Z,24.15
2023-05-20T17:18:37.160Z,24.24
2023-05-20T17:21:03.934Z,24.32
2023-05-20T17:23:30.849Z,24.22
2023-05-20T17:25:57.613Z,24.14
2023-05-20T17:28:24.395Z,24.06
2023-05-20T17:30:51.491Z,23.91
2023-05-20T17:33:18.371Z,23.61
2023-05-20T17:35:45.211Z,24.26
2023-05-20T17:38:11.967Z,24.29
2023-05-20T17:40:38.692Z,24.14
2023-05-20T17:43:05.505Z,24.32
2023-05-20T17:45:32.173Z,24.17
2023-05-20T17:47:58.987Z,24.26
2023-05-20T17:50:25.867Z,24.28
2023-05-20T17:52:52.544Z,24.21
2023-05-20T17:55:21.958Z,24.11
2023-05-20T17:57:48.691Z,24.11
2023-05-20T18:00:17.952Z,24.15
2023-05-20T18:02:47.981Z,24.02
2023-05-20T18:05:16.853Z,23.90
2023-05-20T18:07:43.827Z,23.99
2023-05-20T18:10:11.696Z,23.89
2023-05-20T18:12:38.456Z,24.01
2023-05-20T18:15:06.405Z,23.99
2023-05-20T18:17:33.140Z,23.97
2023-05-20T18:20:00.061Z,23.95
2023-05-20T18:22:27.019Z,23.87
2023-05-20T18:24:53.652Z,23.90
2023-05-20T18:27:20.448Z,23.79
2023-05-20T18:29:47.138Z,23.60
2023-05-20T18:32:14.334Z,23.60
2023-05-20T18:34:41.051Z,23.46
2023-05-20T18:37:07.956Z,23.46
2023-05-20T18:39:34.675Z,23.39
2023-05-20T18:42:01.457Z,23.36
2023-05-20T18:44:28.224Z,23.39
2023-05-20T18:46:54.949Z,23.40
2023-05-20T18:49:21.647Z,23.43
2023-05-20T18:51:48.342Z,23.47
2023-05-20T18:54:14.995Z,23.36
2023-05-20T18:56:41.682Z,23.34
2023-05-20T18:59:08.486Z,23.28
2023-05-20T19:01:36.494Z,23.29
2023-05-20T19:04:03.497Z,23.22
2023-05-20T19:06:31.249Z,23.30
2023-05-20T19:08:58.051Z,23.29
2023-05-20T19:11:24.700Z,23.22
2023-05-20T19:13:51.394Z,23.28
2023-05-20T19:16:18.153Z,23.24
2023-05-20T19:18:44.914Z,23.20
2023-05-20T19:21:11.706Z,23.16
2023-05-20T19:23:38.412Z,23.14
2023-05-20T19:26:05.442Z,23.13
2023-05-20T19:28:32.127Z,23.11
2023-05-20T19:30:58.912Z,22.74
2023-05-20T19:33:25.664Z,22.67
2023-05-20T19:35:52.338Z,22.72
2023-05-20T19:38:19.144Z,22.70
2023-05-20T19:40:46.956Z,22.71
2023-05-20T19:43:13.755Z,22.81
2023-05-20T19:45:40.600Z,22.86
2023-05-20T19:48:07.563Z,22.75
2023-05-20T19:50:34.423Z,22.63
2023-05-20T19:53:03.312Z,22.65
2023-05-20T19:55:30.083Z,22.50
2023-05-20T19:57:57.164Z,22.60
2023-05-20T20:00:24.157Z,22.39
2023-05-20T20:02:51.273Z,22.31
2023-05-20T20:05:18.333Z,22.00
2023-05-20T20:07:45.941Z,22.06
2023-05-20T20:10:12.619Z,22.10
2023-05-20T20:12:39.299Z,22.14
2023-05-20T20:15:06.643Z,22.00
2023-05-20T20:17:33.664Z,22.07
2023-05-20T20:20:00.989Z,21.72
2023-05-20T20:22:27.889Z,21.92
2023-05-20T20:24:54.577Z,21.94
2023-05-20T20:27:23.574Z,21.96
2023-05-20T20:29:50.365Z,21.97
2023-05-20T20:32:17.154Z,21.95
2023-05-20T20:34:43.887Z,21.92
2023-05-20T20:37:14.542Z,21.86
2023-05-20T20:39:41.315Z,21.78
2023-05-20T20:42:08.077Z,21.73
2023-05-20T20:44:34.761Z,21.58
2023-05-20T20:47:04.106Z,21.61
2023-05-20T20:49:32.020Z,21.58
2023-05-20T20:51:59.041Z,21.49
2023-05-20T20:54:26.285Z,21.42
2023-05-20T20:56:56.425Z,21.50
2023-05-20T20:59:26.841Z,21.47
2023-05-20T21:01:54.286Z,21.47
2023-05-20T21:04:21.319Z,21.39
2023-05-20T21:06:48.100Z,21.31
2023-05-20T21:09:15.429Z,21.26
2023-05-20T21:11:42.578Z,21.15
2023-05-20T21:14:10.068Z,21.21
2023-05-20T21:16:37.115Z,21.25
2023-05-20T21:19:04.781Z,21.34
2023-05-20T21:21:31.740Z,21.21
2023-05-20T21:23:58.561Z,21.29
2023-05-20T21:26:25.687Z,21.29
2023-05-20T21:28:52.733Z,21.34
2023-05-20T21:31:19.561Z,21.37
2023-05-20T21:33:46.361Z,21.24
2023-05-20T21:36:13.124Z,21.27
2023-05-20T21:38:39.883Z,21.22
2023-05-20T21:41:07.260Z,21.20
2023-05-20T21:43:34.196Z,21.25
2023-05-20T21:46:01.024Z,21.18
2023-05-20T21:48:27.836Z,21.26
2023-05-20T21:50:54.505Z,21.13
2023-05-20T21:53:21.253Z,21.18
2023-05-20T21:55:48.107Z,20.98
2023-05-20T21:58:14.820Z,21.15
2023-05-20T22:00:41.672Z,21.15
2023-05-20T22:03:08.510Z,21.14
2023-05-20T22:05:35.456Z,21.11
2023-05-20T22:08:02.865Z,20.93
2023-05-20T22:10:29.583Z,20.92
2023-05-20T22:12:58.094Z,20.73
2023-05-20T22:15:24.887Z,20.83
2023-05-20T22:17:51.696Z,20.82
2023-05-20T22:20:18.463Z,20.82
2023-05-20T22:22:45.186Z,20.89
2023-05-20T22:25:12.564Z,20.86
2023-05-20T22:27:42.920Z,20.86
2023-05-20T22:30:11.778Z,20.87
2023-05-20T22:32:39.071Z,20.86
2023-05-20T22:35:06.585Z,20.81
2023-05-20T22:37:33.513Z,20.82
2023-05-20T22:40:00.560Z,20.82
2023-05-20T22:42:27.285Z,20.60
2023-05-20T22:44:54.014Z,20.61
2023-05-20T22:47:21.159Z,20.41
2023-05-20T22:49:47.864Z,20.42
2023-05-20T22:52:14.605Z,20.27
2023-05-20T22:54:41.313Z,20.29
2023-05-20T22:57:08.309Z,20.37
2023-05-20T22:59:36.526Z,20.32
2023-05-20T23:02:04.390Z,20.34
2023-05-20T23:04:31.193Z,20.32
2023-05-20T23:06:59.425Z,20.27
2023-05-20T23:09:26.544Z,20.25
2023-05-20T23:11:53.232Z,20.21
2023-05-20T23:14:20.045Z,20.13
2023-05-20T23:16:47.084Z,20.07
2023-05-20T23:19:14.271Z,20.02
2023-05-20T23:21:41.050Z,19.99
2023-05-20T23:24:07.831Z,20.01
2023-05-20T23:26:34.642Z,19.93
2023-05-20T23:29:01.569Z,19.99
2023-05-20T23:31:29.897Z,20.06
2023-05-20T23:33:59.684Z,20.02
2023-05-20T23:36:28.924Z,20.07
2023-05-20T23:38:56.537Z,20.01
2023-05-20T23:41:24.385Z,20.00
2023-05-20T23:43:51.316Z,20.09
2023-05-20T23:46:19.157Z,20.11
2023-05-20T23:48:48.298Z,20.11
2023-05-20T23:51:16.237Z,20.08
2023-05-20T23:53:44.030Z,20.03
2023-05-20T23:56:11.315Z,20.04
2023-05-20T23:58:38.175Z,20.01
